Time;durP1;ratioP1;P1;durP2;ratioP2;P2;SDS_P1;SDS_P2;PMS_P1;PMS_P2;Temp;Humidity;BMP_temperature;BMP_pressure;BME280_temperature;BME280_humidity;BME280_pressure;Samples;Min_cycle;Max_cycle;Signal;HPM_P1;HPM_P2
2022/01/25 00:24:29;;;;;;;23.83;17.07;;;5.10;33.70;;;;;;6304030;28;20240;-57
2022/01/25 00:27:43;;;;;;;21.20;16.20;;;5.00;33.60;;;;;;6311079;28;20695;-57
2022/01/25 00:30:59;;;;;;;19.23;16.47;;;5.00;33.60;;;;;;6310752;28;20471;-56
2022/01/25 00:34:04;;;;;;;19.07;16.37;;;5.10;33.20;;;;;;6291352;28;20267;-57
2022/01/25 00:37:07;;;;;;;20.07;16.97;;;5.00;33.20;;;;;;6285283;28;20344;-57
2022/01/25 00:40:10;;;;;;;21.43;16.63;;;5.10;32.20;;;;;;6288987;28;20389;-56
2022/01/25 00:43:13;;;;;;;21.83;17.00;;;5.10;32.40;;;;;;6309006;28;20370;-57
2022/01/25 00:46:19;;;;;;;21.10;15.80;;;5.10;30.70;;;;;;6310367;28;20252;-56
2022/01/25 00:49:27;;;;;;;22.63;18.37;;;5.20;30.60;;;;;;6298571;28;20229;-54
2022/01/25 00:55:47;;;;;;;23.33;17.83;;;5.20;31.10;;;;;;6285389;28;20238;-56
2022/01/25 00:58:50;;;;;;;25.73;17.40;;;5.00;30.50;;;;;;6284114;28;20316;-56
2022/01/25 01:01:55;;;;;;;25.67;19.40;;;5.00;30.80;;;;;;6294139;28;20321;-57
2022/01/25 01:04:59;;;;;;;25.53;19.00;;;5.00;30.50;;;;;;6288839;28;20737;-56
2022/01/25 01:08:02;;;;;;;29.43;20.10;;;5.10;30.90;;;;;;6285107;28;20877;-56
2022/01/25 01:11:08;;;;;;;30.33;20.10;;;5.20;31.20;;;;;;6297731;28;20306;-56
2022/01/25 01:14:17;;;;;;;26.57;20.10;;;5.10;31.80;;;;;;6307602;28;20317;-56
2022/01/25 01:28:52;;;;;;;30.17;21.23;;;5.00;31.20;;;;;;6309505;28;20247;-56
2022/01/25 01:31:25;;;;;;;26.10;20.07;;;5.10;30.80;;;;;;6334583;28;20436;-55
2022/01/25 01:38:12;;;;;;;23.43;18.47;;;5.20;30.80;;;;;;6298146;28;20245;-56
2022/01/25 01:41:33;;;;;;;26.00;17.63;;;5.10;30.70;;;;;;6309215;28;20237;-56
2022/01/25 01:44:51;;;;;;;23.20;18.17;;;4.90;30.40;;;;;;6317312;28;20497;-56
2022/01/25 01:48:00;;;;;;;22.43;17.73;;;5.10;30.60;;;;;;6334581;28;20642;-56
2022/01/25 01:51:08;;;;;;;21.27;17.23;;;5.00;30.50;;;;;;6333070;28;20620;-55
2022/01/25 01:54:14;;;;;;;23.17;18.40;;;5.00;29.70;;;;;;6309366;28;20362;-55
2022/01/25 01:57:17;;;;;;;25.37;18.40;;;4.70;29.50;;;;;;6309255;28;20316;-56
2022/01/25 02:00:23;;;;;;;26.80;18.90;;;5.00;29.60;;;;;;6309524;28;20256;-56
2022/01/25 02:03:25;;;;;;;24.77;17.67;;;4.90;30.00;;;;;;6294499;28;20751;-56
2022/01/25 02:06:29;;;;;;;27.80;18.03;;;5.00;29.50;;;;;;6282780;28;20260;-56
2022/01/25 02:09:33;;;;;;;25.60;18.70;;;4.90;29.30;;;;;;6302235;28;20708;-56
2022/01/25 02:12:36;;;;;;;25.83;18.07;;;5.00;30.00;;;;;;6299115;28;20239;-57
2022/01/25 02:15:44;;;;;;;25.83;19.53;;;5.10;29.50;;;;;;6315127;28;20228;-56
2022/01/25 02:22:31;;;;;;;27.60;20.60;;;4.80;28.60;;;;;;6322398;28;20508;-56
2022/01/25 02:25:34;;;;;;;31.07;20.10;;;4.80;28.80;;;;;;6338729;28;20835;-54
2022/01/25 02:28:40;;;;;;;29.43;19.87;;;4.90;29.00;;;;;;6339253;27;20358;-55
2022/01/25 02:31:43;;;;;;;28.67;19.37;;;5.00;29.70;;;;;;6329978;27;20313;-57
2022/01/25 02:34:46;;;;;;;28.33;19.97;;;5.00;30.50;;;;;;6292258;28;20225;-56
2022/01/25 02:37:50;;;;;;;31.00;20.63;;;4.80;29.60;;;;;;6289228;28;20252;-56
2022/01/25 02:40:54;;;;;;;34.57;21.33;;;4.90;29.10;;;;;;6289432;28;20256;-56
2022/01/25 02:43:58;;;;;;;33.63;21.03;;;5.00;29.00;;;;;;6296152;28;20257;-56
2022/01/25 02:50:22;;;;;;;31.87;20.83;;;4.90;27.30;;;;;;6313513;28;20312;-56
2022/01/25 02:53:26;;;;;;;39.07;21.67;;;5.00;26.60;;;;;;6313276;28;20303;-55
2022/01/25 02:56:30;;;;;;;35.73;23.50;;;4.70;25.90;;;;;;6335068;28;20236;-56
2022/01/25 02:59:33;;;;;;;36.33;22.17;;;4.90;26.80;;;;;;6339925;27;20610;-56
2022/01/25 03:02:37;;;;;;;35.13;22.67;;;4.70;26.90;;;;;;6326764;27;20540;-56
2022/01/25 03:05:40;;;;;;;36.00;22.70;;;4.70;26.50;;;;;;6287342;28;20237;-56
2022/01/25 03:08:44;;;;;;;36.83;22.80;;;4.40;25.40;;;;;;6288391;28;20741;-55
2022/01/25 03:11:50;;;;;;;38.73;23.13;;;4.70;26.00;;;;;;6297860;28;20331;-56
2022/01/25 03:15:11;;;;;;;36.20;22.33;;;4.70;26.30;;;;;;6312787;28;20266;-56
2022/01/25 03:18:35;;;;;;;34.93;22.30;;;4.70;26.00;;;;;;6311598;28;20263;-56
2022/01/25 03:21:39;;;;;;;41.03;23.53;;;4.60;26.70;;;;;;6312371;28;20358;-53
2022/01/25 03:24:44;;;;;;;38.20;22.53;;;4.70;26.50;;;;;;6314663;28;20339;-55
2022/01/25 03:27:46;;;;;;;36.13;22.37;;;4.50;26.50;;;;;;6337615;27;20231;-56
2022/01/25 03:30:50;;;;;;;35.87;22.37;;;4.60;27.40;;;;;;6338617;28;20642;-57
2022/01/25 03:33:53;;;;;;;37.60;22.97;;;4.50;27.00;;;;;;6306453;27;20236;-54
2022/01/25 03:36:56;;;;;;;42.30;22.93;;;4.60;27.70;;;;;;6312534;28;20319;-56
2022/01/25 03:40:00;;;;;;;39.40;23.03;;;4.40;27.30;;;;;;6302003;28;20472;-58
2022/01/25 03:43:06;;;;;;;36.17;21.87;;;4.40;26.30;;;;;;6293994;28;20916;-55
2022/01/25 03:46:14;;;;;;;39.30;21.60;;;4.40;25.80;;;;;;6286517;28;20449;-56
2022/01/25 03:52:39;;;;;;;37.43;21.53;;;4.20;26.40;;;;;;6287754;28;20461;-56
2022/01/25 03:55:43;;;;;;;38.60;22.60;;;4.30;26.10;;;;;;6287245;28;20713;-56
2022/01/25 03:58:46;;;;;;;40.37;23.77;;;4.20;25.70;;;;;;6286908;28;20284;-56
2022/01/25 04:01:49;;;;;;;40.83;24.53;;;4.30;24.50;;;;;;6287028;28;20589;-56
2022/01/25 04:04:52;;;;;;;40.03;23.67;;;4.50;25.70;;;;;;6286592;28;20265;-56
2022/01/25 04:07:55;;;;;;;44.00;23.47;;;4.40;25.00;;;;;;6286642;28;20302;-56
2022/01/25 04:11:02;;;;;;;44.97;23.77;;;4.30;24.70;;;;;;6291332;28;20312;-56
2022/01/25 04:14:06;;;;;;;48.40;26.20;;;4.50;25.40;;;;;;6310832;28;20233;-56
2022/01/25 04:17:12;;;;;;;42.80;23.83;;;4.30;25.00;;;;;;6311518;28;20256;-57
2022/01/25 04:20:19;;;;;;;38.37;23.07;;;4.40;23.60;;;;;;6310823;28;20305;-57
2022/01/25 04:26:44;;;;;;;36.27;22.13;;;4.30;23.30;;;;;;6286148;28;20242;-55
2022/01/25 04:29:47;;;;;;;29.17;19.23;;;4.40;23.20;;;;;;6286662;28;20333;-56
2022/01/25 04:32:55;;;;;;;31.77;19.80;;;4.40;23.30;;;;;;6277588;28;20237;-56
2022/01/25 04:36:11;;;;;;;28.10;18.27;;;4.40;22.40;;;;;;6293132;28;20243;-56
2022/01/25 04:49:23;;;;;;;27.63;17.87;;;4.50;21.90;;;;;;6287080;28;20233;-57
2022/01/25 04:52:31;;;;;;;30.37;19.00;;;4.40;22.50;;;;;;6285298;28;20301;-57
2022/01/25 04:55:39;;;;;;;27.40;17.47;;;4.40;22.00;;;;;;6291403;28;20240;-55
2022/01/25 04:58:50;;;;;;;29.87;17.93;;;4.40;22.40;;;;;;6300124;28;20229;-56
2022/01/25 05:01:59;;;;;;;27.10;17.87;;;4.40;21.00;;;;;;6300908;28;20849;-55
2022/01/25 05:05:08;;;;;;;30.27;18.40;;;4.60;21.10;;;;;;6301321;28;20240;-55
2022/01/25 05:08:19;;;;;;;27.17;17.40;;;4.60;21.50;;;;;;6287134;28;20806;-56
2022/01/25 05:11:28;;;;;;;25.63;16.93;;;4.50;20.60;;;;;;6287056;28;20243;-56
2022/01/25 05:14:35;;;;;;;25.00;16.73;;;4.50;20.30;;;;;;6305263;28;20231;-54
2022/01/25 05:17:44;;;;;;;26.27;17.07;;;4.50;20.20;;;;;;6293338;28;20638;-54
2022/01/25 05:24:07;;;;;;;25.40;17.83;;;4.60;21.00;;;;;;6290482;28;20233;-55
2022/01/25 05:27:12;;;;;;;27.30;17.67;;;4.40;21.20;;;;;;6283548;28;20237;-56
2022/01/25 05:30:16;;;;;;;25.53;18.10;;;4.60;21.20;;;;;;6286538;28;20233;-55
2022/01/25 05:33:18;;;;;;;24.87;17.03;;;4.60;21.20;;;;;;6295287;28;20309;-58
2022/01/25 05:36:21;;;;;;;31.27;18.53;;;4.30;21.70;;;;;;6292399;28;20720;-57
2022/01/25 05:39:28;;;;;;;25.17;17.77;;;4.40;21.50;;;;;;6308405;28;20285;-58
2022/01/25 05:42:48;;;;;;;27.03;17.50;;;4.60;19.60;;;;;;6284944;28;20264;-56
2022/01/25 05:46:00;;;;;;;29.33;19.00;;;4.50;20.30;;;;;;6286726;28;20230;-55
2022/01/25 05:49:02;;;;;;;28.30;17.23;;;4.60;20.40;;;;;;6286026;28;20229;-56
2022/01/25 05:52:08;;;;;;;30.97;18.50;;;4.70;19.40;;;;;;6291605;28;20268;-55
2022/01/25 05:55:12;;;;;;;27.30;17.90;;;4.70;19.50;;;;;;6290806;28;20229;-59
2022/01/25 05:58:15;;;;;;;27.70;18.03;;;4.50;18.80;;;;;;6293114;28;20317;-56
2022/01/25 06:01:20;;;;;;;26.80;18.03;;;4.60;19.20;;;;;;6294082;28;20241;-56
2022/01/25 06:04:23;;;;;;;29.70;17.93;;;4.50;19.00;;;;;;6295651;28;20705;-55
2022/01/25 06:07:27;;;;;;;32.63;18.80;;;4.40;18.70;;;;;;6290771;28;20391;-56
2022/01/25 06:10:30;;;;;;;28.87;18.30;;;4.60;19.50;;;;;;6287868;28;20233;-55
2022/01/25 06:13:32;;;;;;;26.67;17.50;;;4.60;20.50;;;;;;6295877;28;20232;-56
2022/01/25 06:16:40;;;;;;;31.03;18.60;;;4.30;20.00;;;;;;6289155;28;20255;-55
2022/01/25 06:19:43;;;;;;;28.17;18.50;;;4.50;21.10;;;;;;6288499;28;20311;-56
2022/01/25 06:22:46;;;;;;;29.90;19.33;;;4.50;22.50;;;;;;6296563;28;20237;-57
2022/01/25 06:25:49;;;;;;;25.30;17.30;;;4.70;20.80;;;;;;6300890;28;20271;-56
2022/01/25 06:28:52;;;;;;;27.77;18.47;;;4.60;20.20;;;;;;6302041;28;20606;-55
2022/01/25 06:31:56;;;;;;;27.57;18.63;;;4.60;20.40;;;;;;6299515;28;20400;-56
2022/01/25 06:34:59;;;;;;;31.00;19.33;;;4.60;20.60;;;;;;6298021;28;20294;-56
2022/01/25 06:38:02;;;;;;;31.20;18.17;;;4.50;20.00;;;;;;6300521;28;20715;-56
2022/01/25 06:41:04;;;;;;;31.23;19.43;;;4.70;20.10;;;;;;6302796;28;20266;-56
2022/01/25 06:44:07;;;;;;;26.03;17.73;;;4.60;20.60;;;;;;6290720;28;20233;-56
2022/01/25 06:47:11;;;;;;;30.10;18.33;;;4.40;20.50;;;;;;6294942;28;20379;-57
2022/01/25 06:50:16;;;;;;;30.37;19.33;;;4.60;21.00;;;;;;6303494;28;20343;-56
2022/01/25 06:53:19;;;;;;;27.73;17.60;;;4.50;21.60;;;;;;6303279;28;20846;-58
2022/01/25 06:56:22;;;;;;;28.63;18.67;;;4.50;22.50;;;;;;6304773;28;20232;-56
2022/01/25 06:59:25;;;;;;;28.37;18.93;;;4.50;22.50;;;;;;6312966;28;20270;-56
2022/01/25 07:02:29;;;;;;;29.50;18.30;;;4.50;22.60;;;;;;6297236;28;20236;-57
2022/01/25 07:05:31;;;;;;;27.97;18.33;;;4.40;22.50;;;;;;6310023;28;20768;-59
2022/01/25 07:08:34;;;;;;;32.73;19.33;;;4.40;23.10;;;;;;6301305;28;20315;-56
2022/01/25 07:11:37;;;;;;;32.80;20.50;;;4.40;22.40;;;;;;6298368;28;20259;-57
2022/01/25 07:14:40;;;;;;;31.13;20.50;;;4.20;23.40;;;;;;6301308;28;20312;-57
2022/01/25 07:17:45;;;;;;;37.03;21.57;;;4.60;24.40;;;;;;6301888;28;20321;-57
2022/01/25 07:20:47;;;;;;;38.40;21.57;;;4.60;24.30;;;;;;6295814;28;20256;-61
2022/01/25 07:23:50;;;;;;;36.47;21.30;;;4.30;25.00;;;;;;6298709;28;20717;-56
2022/01/25 07:26:53;;;;;;;37.93;21.60;;;4.20;25.50;;;;;;6295328;28;20327;-57
2022/01/25 07:30:01;;;;;;;40.00;22.10;;;4.30;25.90;;;;;;6300202;28;20281;-56
2022/01/25 07:33:07;;;;;;;39.03;21.87;;;4.40;26.10;;;;;;6298516;28;20870;-56
2022/01/25 07:36:11;;;;;;;41.33;22.20;;;4.40;27.10;;;;;;6291292;28;20787;-56
2022/01/25 07:39:15;;;;;;;39.90;21.93;;;4.50;27.20;;;;;;6302475;28;20312;-57
2022/01/25 07:42:30;;;;;;;42.03;22.87;;;4.40;26.90;;;;;;6300862;28;20958;-58
2022/01/25 07:45:51;;;;;;;41.30;23.00;;;4.30;27.50;;;;;;6288293;28;20316;-56
2022/01/25 07:49:12;;;;;;;38.30;22.37;;;4.50;27.50;;;;;;6300617;28;20379;-57
2022/01/25 07:52:14;;;;;;;44.27;22.63;;;4.40;27.70;;;;;;6295485;28;20329;-54
2022/01/25 07:55:18;;;;;;;42.40;23.13;;;4.50;29.10;;;;;;6297172;28;20249;-57
2022/01/25 07:58:20;;;;;;;41.60;22.50;;;4.40;28.50;;;;;;6301096;28;20339;-56
2022/01/25 08:01:24;;;;;;;46.37;22.93;;;4.50;28.90;;;;;;6309515;28;20236;-57
2022/01/25 08:04:28;;;;;;;38.30;22.10;;;4.50;29.50;;;;;;6297027;28;20525;-56
2022/01/25 08:07:39;;;;;;;40.10;22.77;;;4.60;29.20;;;;;;6287971;28;20234;-56
2022/01/25 08:10:49;;;;;;;38.73;22.47;;;4.50;29.50;;;;;;6296108;28;21311;-57
2022/01/25 08:14:11;;;;;;;36.97;22.07;;;4.40;29.90;;;;;;6295940;28;20246;-57
2022/01/25 08:17:28;;;;;;;39.27;23.53;;;4.40;30.00;;;;;;6287065;28;20640;-56
2022/01/25 08:20:53;;;;;;;42.80;23.07;;;4.50;29.40;;;;;;6297763;28;20464;-57
2022/01/25 08:23:59;;;;;;;40.80;22.07;;;4.50;30.10;;;;;;6286822;28;20345;-57
2022/01/25 08:27:20;;;;;;;44.37;23.93;;;4.60;30.80;;;;;;6297369;28;20234;-56
2022/01/25 08:30:39;;;;;;;42.87;22.47;;;4.50;30.00;;;;;;6301341;28;20336;-57
2022/01/25 08:33:57;;;;;;;45.57;22.77;;;4.40;29.60;;;;;;6276617;28;20248;-56
2022/01/25 08:37:10;;;;;;;40.27;23.43;;;4.80;30.20;;;;;;6287523;28;20233;-56
2022/01/25 08:40:25;;;;;;;37.83;21.57;;;4.60;28.00;;;;;;6298968;28;20229;-60
2022/01/25 08:43:31;;;;;;;37.53;22.90;;;4.70;27.10;;;;;;6294998;28;20237;-56
2022/01/25 08:46:45;;;;;;;39.10;21.53;;;4.90;26.60;;;;;;6309701;28;20253;-56
2022/01/25 08:50:03;;;;;;;36.43;21.00;;;4.90;27.80;;;;;;6293042;28;20232;-57
2022/01/25 08:53:25;;;;;;;33.83;20.30;;;5.00;27.60;;;;;;6284701;28;20241;-57
2022/01/25 08:56:46;;;;;;;39.60;22.47;;;4.70;28.00;;;;;;6286704;28;20241;-56
2022/01/25 09:00:21;;;;;;;38.13;20.80;;;4.80;28.30;;;;;;6220777;28;20909;-55
2022/01/25 09:03:24;;;;;;;34.90;20.00;;;4.60;28.10;;;;;;6229905;28;20290;-57
2022/01/25 09:06:26;;;;;;;37.27;21.20;;;4.90;27.40;;;;;;6284884;28;20629;-57
2022/01/25 09:09:31;;;;;;;41.80;22.17;;;4.80;26.70;;;;;;6300670;28;20331;-56
2022/01/25 09:12:33;;;;;;;39.50;22.13;;;4.90;26.90;;;;;;6285677;28;20314;-57
2022/01/25 09:15:36;;;;;;;37.77;22.17;;;5.00;26.50;;;;;;6291276;28;20239;-57
2022/01/25 09:18:39;;;;;;;38.77;21.67;;;4.80;26.50;;;;;;6303600;28;20229;-56
2022/01/25 09:21:42;;;;;;;43.10;22.83;;;4.90;28.40;;;;;;6304668;28;20821;-57
2022/01/25 09:24:46;;;;;;;41.10;23.63;;;4.90;28.20;;;;;;6287602;28;20229;-59
2022/01/25 09:27:49;;;;;;;38.30;22.27;;;5.00;28.00;;;;;;6295446;28;20275;-56
2022/01/25 09:30:52;;;;;;;36.43;22.10;;;4.90;27.90;;;;;;6311843;28;20401;-56
2022/01/25 09:33:56;;;;;;;36.13;21.27;;;5.10;28.80;;;;;;6303422;28;20287;-55
2022/01/25 09:36:59;;;;;;;36.43;21.83;;;4.80;28.50;;;;;;6304095;28;20638;-54
2022/01/25 09:40:04;;;;;;;32.57;20.03;;;5.10;29.20;;;;;;6303461;28;20277;-56
2022/01/25 09:43:07;;;;;;;32.80;18.90;;;5.00;28.40;;;;;;6290720;28;20256;-57
2022/01/25 09:46:10;;;;;;;33.20;19.30;;;5.10;29.00;;;;;;6296457;28;20251;-58
2022/01/25 09:49:14;;;;;;;32.93;19.87;;;5.00;30.50;;;;;;6312284;28;20246;-56
2022/01/25 09:52:19;;;;;;;39.27;21.30;;;5.10;29.90;;;;;;6298648;28;20256;-56
2022/01/25 09:55:26;;;;;;;34.63;19.57;;;4.80;30.20;;;;;;6297316;28;20910;-56
2022/01/25 09:58:29;;;;;;;37.37;21.27;;;5.00;32.00;;;;;;6285434;28;20237;-57
2022/01/25 10:01:32;;;;;;;36.03;19.27;;;4.90;31.30;;;;;;6297319;28;20500;-57
2022/01/25 10:04:39;;;;;;;39.77;21.03;;;5.00;31.90;;;;;;6296951;28;20225;-57
2022/01/25 10:07:41;;;;;;;38.13;21.83;;;5.10;31.40;;;;;;6299144;28;20243;-56
2022/01/25 10:10:48;;;;;;;38.60;20.73;;;4.80;30.10;;;;;;6288301;28;20325;-58
2022/01/25 10:13:54;;;;;;;36.97;20.47;;;5.00;32.60;;;;;;6300562;28;20336;-58
2022/01/25 10:16:57;;;;;;;35.07;20.43;;;4.70;33.70;;;;;;6290886;28;20302;-57
2022/01/25 10:20:00;;;;;;;34.53;20.03;;;4.80;34.10;;;;;;6300092;28;20928;-58
2022/01/25 10:23:08;;;;;;;32.90;19.00;;;4.70;33.50;;;;;;6294902;28;20378;-57
2022/01/25 10:26:13;;;;;;;34.30;18.60;;;5.00;34.10;;;;;;6288923;28;20434;-57
2022/01/25 10:29:37;;;;;;;45.27;20.00;;;4.80;33.50;;;;;;6292154;28;20725;-59
2022/01/25 10:32:40;;;;;;;37.70;20.20;;;5.00;33.30;;;;;;6290662;28;20244;-57
2022/01/25 10:35:43;;;;;;;38.20;20.00;;;4.90;34.90;;;;;;6299009;28;20228;-56
2022/01/25 10:38:48;;;;;;;31.93;18.93;;;5.10;34.80;;;;;;6286605;28;20236;-57
2022/01/25 10:41:52;;;;;;;34.60;19.80;;;4.80;34.20;;;;;;6302949;28;20841;-56
2022/01/25 10:44:57;;;;;;;34.47;18.97;;;4.90;32.80;;;;;;6301510;28;20815;-58
2022/01/25 10:48:00;;;;;;;33.23;18.97;;;5.00;32.60;;;;;;6296892;28;20473;-57
2022/01/25 10:51:05;;;;;;;33.27;19.27;;;4.90;32.40;;;;;;6289418;28;20724;-58
2022/01/25 10:54:12;;;;;;;31.13;19.07;;;5.00;32.50;;;;;;6305180;28;20284;-57
2022/01/25 10:57:20;;;;;;;34.17;18.53;;;5.10;32.40;;;;;;6308900;28;20301;-57
2022/01/25 11:00:22;;;;;;;28.37;18.03;;;5.20;33.30;;;;;;6304014;28;20228;-56
2022/01/25 11:03:28;;;;;;;31.00;17.53;;;5.20;33.10;;;;;;6297153;28;20856;-58
2022/01/25 11:06:31;;;;;;;26.50;16.50;;;5.20;31.90;;;;;;6290338;28;20225;-56
2022/01/25 11:09:38;;;;;;;28.77;16.77;;;5.40;32.40;;;;;;6309918;28;20362;-56
2022/01/25 11:12:48;;;;;;;26.17;16.27;;;5.20;30.60;;;;;;6299311;28;20727;-56
2022/01/25 11:16:11;;;;;;;25.37;15.33;;;5.30;31.00;;;;;;6301089;28;20255;-59
2022/01/25 11:19:14;;;;;;;25.27;16.93;;;5.40;32.10;;;;;;6309101;28;20779;-56
2022/01/25 11:22:19;;;;;;;24.53;15.47;;;5.30;30.70;;;;;;6300518;28;20315;-56
2022/01/25 11:25:24;;;;;;;24.23;15.23;;;5.60;29.60;;;;;;6290673;28;20279;-56
2022/01/25 11:28:30;;;;;;;22.30;14.23;;;5.50;29.00;;;;;;6303765;28;20236;-58
2022/01/25 11:31:33;;;;;;;23.27;15.07;;;5.30;28.30;;;;;;6296263;28;20237;-57
2022/01/25 11:34:38;;;;;;;26.23;15.57;;;5.30;26.90;;;;;;6293856;28;20244;-55
2022/01/25 11:37:43;;;;;;;22.87;13.00;;;5.30;28.30;;;;;;6303794;28;20244;-58
2022/01/25 11:40:47;;;;;;;20.63;12.93;;;5.40;27.10;;;;;;6298093;28;20233;-56
2022/01/25 11:47:20;;;;;;;23.43;13.77;;;5.40;27.60;;;;;;6274811;27;20580;-56
2022/01/25 11:50:27;;;;;;;22.37;15.20;;;5.60;27.00;;;;;;6276629;28;20367;-56
2022/01/25 11:53:29;;;;;;;25.83;14.43;;;5.40;27.70;;;;;;6275012;28;20890;-57
2022/01/25 11:56:33;;;;;;;18.70;12.83;;;5.30;26.90;;;;;;6280146;28;20336;-56
2022/01/25 11:59:36;;;;;;;21.90;14.10;;;5.50;27.30;;;;;;6293582;28;20237;-56
2022/01/25 12:02:45;;;;;;;24.37;13.63;;;5.40;27.50;;;;;;6296481;28;20312;-57
2022/01/25 12:05:59;;;;;;;25.20;14.60;;;5.50;27.40;;;;;;6297607;28;20241;-56
2022/01/25 12:09:15;;;;;;;20.63;13.70;;;5.40;27.30;;;;;;6301407;28;20306;-56
2022/01/25 12:12:18;;;;;;;17.27;13.00;;;5.20;27.60;;;;;;6300890;28;20270;-56
2022/01/25 12:15:22;;;;;;;22.10;13.67;;;5.50;27.60;;;;;;6305009;28;20395;-56
2022/01/25 12:18:58;;;;;;;21.57;13.50;;;5.60;28.70;;;;;;6304065;28;20229;-58
2022/01/25 12:22:11;;;;;;;22.53;14.00;;;5.40;29.10;;;;;;6295334;28;20225;-56
2022/01/25 12:25:25;;;;;;;23.57;14.50;;;5.30;28.40;;;;;;6303128;28;20237;-57
2022/01/25 12:28:31;;;;;;;21.10;13.60;;;5.40;28.80;;;;;;6285978;28;20239;-55
2022/01/25 12:31:43;;;;;;;21.60;13.77;;;5.40;28.70;;;;;;6297016;28;20703;-57
2022/01/25 12:35:09;;;;;;;22.77;14.57;;;5.50;27.20;;;;;;6289533;28;20236;-59
2022/01/25 12:38:18;;;;;;;20.63;14.13;;;5.50;28.40;;;;;;6303933;28;20765;-56
2022/01/25 12:41:22;;;;;;;19.77;14.37;;;5.30;29.00;;;;;;6297877;28;20321;-57
2022/01/25 12:44:24;;;;;;;21.23;14.10;;;5.70;29.30;;;;;;6304453;28;20323;-57
2022/01/25 12:47:27;;;;;;;22.17;14.17;;;5.60;29.40;;;;;;6302218;28;20233;-56
2022/01/25 12:50:33;;;;;;;19.83;14.10;;;5.70;29.60;;;;;;6303274;28;20789;-57
2022/01/25 12:53:38;;;;;;;22.73;14.70;;;5.60;28.40;;;;;;6302670;28;20241;-60
2022/01/25 12:56:44;;;;;;;22.77;15.00;;;5.60;28.80;;;;;;6297434;28;20343;-55
2022/01/25 12:59:49;;;;;;;23.23;14.87;;;5.70;27.70;;;;;;6286496;28;20245;-57
2022/01/25 13:02:52;;;;;;;23.33;14.70;;;5.60;28.80;;;;;;6275957;28;20515;-56
2022/01/25 13:06:02;;;;;;;24.53;14.67;;;5.70;28.30;;;;;;6285376;28;20240;-56
2022/01/25 13:09:08;;;;;;;21.83;14.30;;;5.60;28.70;;;;;;6282993;28;20229;-57
2022/01/25 13:12:15;;;;;;;23.90;15.03;;;5.80;30.10;;;;;;6282342;28;20652;-57
2022/01/25 13:15:39;;;;;;;22.70;14.57;;;5.40;30.10;;;;;;6270946;28;20299;-57
2022/01/25 13:18:42;;;;;;;25.20;15.60;;;5.70;31.20;;;;;;6275436;28;20372;-56
2022/01/25 13:21:53;;;;;;;23.43;15.53;;;5.60;31.20;;;;;;6284352;28;20242;-57
2022/01/25 13:25:14;;;;;;;25.80;16.60;;;5.50;31.10;;;;;;6278987;28;20237;-57
2022/01/25 13:28:32;;;;;;;24.70;15.73;;;5.50;30.30;;;;;;6284394;28;20229;-56
2022/01/25 13:31:51;;;;;;;30.00;16.87;;;5.70;31.10;;;;;;6282957;28;20237;-56
2022/01/25 13:35:01;;;;;;;29.30;16.83;;;5.60;30.90;;;;;;6281177;28;20722;-57
2022/01/25 13:38:11;;;;;;;29.50;16.50;;;5.50;29.40;;;;;;6283948;28;20225;-56
2022/01/25 13:41:18;;;;;;;24.00;15.63;;;5.60;29.50;;;;;;6282587;28;20520;-57
2022/01/25 13:47:41;;;;;;;31.17;17.93;;;5.60;29.80;;;;;;6277841;28;20242;-57
2022/01/25 13:50:44;;;;;;;31.83;17.47;;;5.70;29.60;;;;;;6284681;28;20241;-57
2022/01/25 13:53:52;;;;;;;30.90;18.40;;;5.70;29.30;;;;;;6286998;28;22545;-57
2022/01/25 13:56:55;;;;;;;30.70;18.00;;;5.70;29.60;;;;;;6284813;28;20843;-57
2022/01/25 13:59:59;;;;;;;30.00;17.97;;;5.70;29.90;;;;;;6279907;28;20320;-56
2022/01/25 14:03:02;;;;;;;24.73;16.53;;;5.60;30.90;;;;;;6286173;28;20241;-56
2022/01/25 14:06:21;;;;;;;25.80;17.27;;;5.50;32.40;;;;;;6284977;28;20233;-56
2022/01/25 14:09:31;;;;;;;26.70;16.93;;;5.40;33.00;;;;;;6284283;28;20307;-56
2022/01/25 14:23:06;;;;;;;28.63;16.73;;;5.50;35.70;;;;;;6278163;28;20321;-58
2022/01/25 14:26:11;;;;;;;31.53;18.17;;;5.70;35.50;;;;;;6280251;28;20460;-58
2022/01/25 14:29:18;;;;;;;34.60;18.37;;;5.40;36.50;;;;;;6283128;28;20641;-57
2022/01/25 14:32:31;;;;;;;29.80;18.03;;;5.50;36.70;;;;;;6274456;28;20387;-56
2022/01/25 14:35:34;;;;;;;29.40;17.93;;;5.30;37.00;;;;;;6272918;28;20340;-56
2022/01/25 14:38:43;;;;;;;28.57;18.40;;;5.50;35.90;;;;;;6284514;28;20792;-56
2022/01/25 14:41:49;;;;;;;31.77;17.50;;;5.20;36.20;;;;;;6279863;28;20257;-56
2022/01/25 14:44:54;;;;;;;28.83;17.70;;;5.40;37.50;;;;;;6278948;28;20313;-57
2022/01/25 14:47:58;;;;;;;28.40;16.97;;;5.40;36.70;;;;;;6278412;28;20238;-56
2022/01/25 14:51:01;;;;;;;27.63;17.47;;;5.30;36.40;;;;;;6284365;28;20233;-55
2022/01/25 14:54:07;;;;;;;32.03;18.53;;;5.40;37.80;;;;;;6284163;28;20229;-56
2022/01/25 14:57:14;;;;;;;33.70;18.90;;;5.20;38.30;;;;;;6283088;28;20233;-57
2022/01/25 15:00:17;;;;;;;29.83;18.20;;;5.20;38.10;;;;;;6283164;28;20237;-56
2022/01/25 15:03:21;;;;;;;31.63;16.83;;;5.40;38.20;;;;;;6284251;28;20315;-58
2022/01/25 15:06:24;;;;;;;29.27;17.37;;;5.40;38.60;;;;;;6283538;28;20322;-56
2022/01/25 15:09:27;;;;;;;26.33;16.13;;;5.40;38.60;;;;;;6282662;28;20240;-56
2022/01/25 15:12:38;;;;;;;27.83;16.90;;;5.40;38.20;;;;;;6269215;28;20329;-56
2022/01/25 15:15:55;;;;;;;27.50;17.53;;;5.40;38.90;;;;;;6284820;28;20728;-57
2022/01/25 15:18:57;;;;;;;25.73;16.50;;;5.40;38.50;;;;;;6283217;28;20221;-57
2022/01/25 15:22:00;;;;;;;23.33;15.27;;;5.30;38.10;;;;;;6278007;28;20848;-56
2022/01/25 15:25:06;;;;;;;26.13;15.07;;;5.40;38.10;;;;;;6281299;28;20316;-56
2022/01/25 15:28:12;;;;;;;21.73;14.57;;;5.50;38.20;;;;;;6282197;28;20530;-56
2022/01/25 15:31:17;;;;;;;23.83;14.03;;;5.50;38.10;;;;;;6282864;28;20545;-57
2022/01/25 15:34:20;;;;;;;19.60;13.23;;;5.30;38.30;;;;;;6284377;28;20259;-56
2022/01/25 15:37:23;;;;;;;23.83;15.07;;;5.50;38.20;;;;;;6277590;28;20543;-57
2022/01/25 15:40:26;;;;;;;23.30;15.00;;;5.50;38.10;;;;;;6281467;28;20243;-57
2022/01/25 15:43:37;;;;;;;19.20;13.73;;;5.50;38.10;;;;;;6283814;28;20318;-57
2022/01/25 15:49:56;;;;;;;22.43;13.43;;;5.20;38.20;;;;;;6275917;28;20229;-57
2022/01/25 15:52:59;;;;;;;22.27;14.80;;;5.30;38.50;;;;;;6275398;28;20652;-57
2022/01/25 15:56:02;;;;;;;22.80;14.20;;;5.20;38.80;;;;;;6276463;28;20310;-55
2022/01/25 15:59:06;;;;;;;27.07;15.43;;;5.40;39.10;;;;;;6280965;28;20503;-56
2022/01/25 16:02:24;;;;;;;24.30;14.60;;;5.10;39.00;;;;;;6276874;28;20241;-56
2022/01/25 16:05:28;;;;;;;24.50;14.83;;;5.40;39.40;;;;;;6277996;28;20543;-57
2022/01/25 16:08:30;;;;;;;27.20;14.80;;;5.30;39.50;;;;;;6281627;28;20229;-51
2022/01/25 16:11:33;;;;;;;27.00;15.47;;;5.50;40.10;;;;;;6276911;28;20319;-55
2022/01/25 16:14:38;;;;;;;26.40;16.27;;;5.30;39.90;;;;;;6280937;28;20235;-56
2022/01/25 16:17:41;;;;;;;26.27;15.63;;;5.20;40.20;;;;;;6282375;28;20773;-58
2022/01/25 16:20:44;;;;;;;25.43;15.37;;;5.30;40.30;;;;;;6283226;28;20299;-56
2022/01/25 16:23:47;;;;;;;24.30;15.17;;;5.30;40.00;;;;;;6281229;28;20313;-55
2022/01/25 16:26:50;;;;;;;30.20;16.80;;;5.30;40.40;;;;;;6282325;28;20284;-56
2022/01/25 16:29:54;;;;;;;26.70;16.20;;;5.30;40.30;;;;;;6281249;28;20977;-56
2022/01/25 16:32:57;;;;;;;31.70;16.43;;;5.20;40.20;;;;;;6284215;28;20625;-57
2022/01/25 16:36:00;;;;;;;29.30;16.57;;;5.20;40.10;;;;;;6287134;28;20225;-56
2022/01/25 16:39:05;;;;;;;25.50;15.83;;;5.20;40.30;;;;;;6283560;28;20710;-56
2022/01/25 16:42:08;;;;;;;27.97;16.97;;;5.10;40.10;;;;;;6283300;28;20302;-56
2022/01/25 16:45:34;;;;;;;31.87;16.97;;;5.10;39.70;;;;;;6284808;28;20439;-55
2022/01/25 16:48:38;;;;;;;32.27;18.50;;;5.30;39.80;;;;;;6286030;28;20769;-57
2022/01/25 16:51:41;;;;;;;30.83;18.27;;;5.10;39.80;;;;;;6286058;28;20237;-57
2022/01/25 16:54:45;;;;;;;28.00;17.63;;;4.90;40.00;;;;;;6284382;28;20555;-57
2022/01/25 16:58:07;;;;;;;29.17;17.60;;;5.30;40.40;;;;;;6285667;28;20396;-57
2022/01/25 17:01:11;;;;;;;30.37;17.50;;;5.10;40.10;;;;;;6277105;28;20733;-56
2022/01/25 17:04:14;;;;;;;31.13;18.23;;;5.20;40.20;;;;;;6283019;28;20723;-58
2022/01/25 17:07:18;;;;;;;28.27;17.30;;;5.40;39.80;;;;;;6278702;28;20279;-56
2022/01/25 17:10:22;;;;;;;27.10;17.00;;;5.30;39.30;;;;;;6279695;28;20229;-57
2022/01/25 17:13:24;;;;;;;31.77;17.03;;;5.20;39.20;;;;;;6285483;28;20248;-56
2022/01/25 17:16:29;;;;;;;29.53;17.90;;;5.30;38.60;;;;;;6285667;28;20237;-55
2022/01/25 17:19:33;;;;;;;30.10;17.03;;;5.50;38.80;;;;;;6282788;28;20464;-56
2022/01/25 17:22:36;;;;;;;30.70;17.50;;;5.20;38.80;;;;;;6286045;28;20244;-55
2022/01/25 17:25:39;;;;;;;33.27;18.37;;;5.10;38.90;;;;;;6287004;28;20351;-57